Maliotenam, Canada
Current Conditions -  °F | °C
As of 10:00 AM on Wednesday 22 Oct 2014 (Local Time) from CYZV Reporting Station
Few Clouds Few Clouds  
Wind Chill: 33°   Ceiling: Unl
Heat Index: 37°   Visibility: 30mi
Dew Point: 28°   Wind: 6mph
Humidity: 70%   Direction: 50°NE
Pressure: 30.55"   Gusts: NA
Location:  50.21°N, 66.19°W
Report Text: CYZV 221400Z 05005KT 30SM FEW100 03/M02 A3055 RMK AC1 AC TR SLP350
Loading
Personal Weather Stations






























Interactive Weather Map
Tropical Storm Tracking
New forecast layout! Learn more

10-Day Weather Forecast

Advertisements
Track Severe Weather on mobile